createdAt,value
2023-09-19T00:00:10.091Z,69.33
2023-09-19T00:00:43.391Z,69.00
2023-09-19T00:01:15.952Z,69.00
2023-09-19T00:01:48.044Z,69.00
2023-09-19T00:02:20.017Z,68.33
2023-09-19T00:03:00.696Z,67.67
2023-09-19T00:03:32.846Z,67.00
2023-09-19T00:04:04.915Z,66.67
2023-09-19T00:04:41.020Z,64.00
2023-09-19T00:05:13.573Z,60.00
2023-09-19T00:05:46.142Z,57.00
2023-09-19T00:06:18.498Z,56.00
2023-09-19T00:06:51.305Z,56.67
2023-09-19T00:07:24.971Z,57.00
2023-09-19T00:07:59.802Z,57.00
2023-09-19T00:08:34.465Z,56.00
2023-09-19T00:09:06.589Z,56.67
2023-09-19T00:09:38.701Z,58.00
2023-09-19T00:10:11.030Z,58.00
2023-09-19T00:10:43.686Z,58.00
2023-09-19T00:11:15.687Z,58.00
2023-09-19T00:11:50.426Z,58.33
2023-09-19T00:12:22.483Z,68.00
2023-09-19T00:12:56.572Z,76.33
2023-09-19T00:13:29.853Z,74.67
2023-09-19T00:14:01.858Z,73.33
2023-09-19T00:14:39.395Z,72.33
2023-09-19T00:15:12.072Z,72.00
2023-09-19T00:15:50.073Z,72.00
2023-09-19T00:16:22.862Z,72.67
2023-09-19T00:16:56.201Z,73.00
2023-09-19T00:17:31.714Z,73.00
2023-09-19T00:18:06.083Z,72.67
2023-09-19T00:18:39.102Z,72.00
2023-09-19T00:19:11.087Z,72.00
2023-09-19T00:19:44.114Z,71.33
2023-09-19T00:20:19.681Z,71.00
2023-09-19T00:20:53.363Z,69.67
2023-09-19T00:21:25.834Z,69.00
2023-09-19T00:21:57.768Z,69.33
2023-09-19T00:22:29.783Z,70.00
2023-09-19T00:23:09.705Z,70.00
2023-09-19T00:23:44.482Z,69.00
2023-09-19T00:24:18.771Z,69.00
2023-09-19T00:24:52.342Z,69.00
2023-09-19T00:25:24.328Z,69.00
2023-09-19T00:26:02.527Z,69.00
2023-09-19T00:26:35.594Z,69.00
2023-09-19T00:27:09.539Z,69.00
2023-09-19T00:27:41.469Z,69.00
2023-09-19T00:28:13.399Z,69.00
2023-09-19T00:28:45.423Z,69.33
2023-09-19T00:29:17.601Z,72.33
2023-09-19T00:29:49.524Z,77.33
2023-09-19T00:30:22.043Z,80.00
2023-09-19T00:30:55.841Z,79.67
2023-09-19T00:31:27.895Z,78.67
2023-09-19T00:32:00.496Z,78.00
2023-09-19T00:32:32.498Z,78.00
2023-09-19T00:33:07.235Z,77.00
2023-09-19T00:33:39.330Z,76.33
2023-09-19T00:34:12.067Z,76.00
2023-09-19T00:34:44.261Z,76.00
2023-09-19T00:35:16.764Z,75.33
2023-09-19T00:35:58.934Z,75.67
2023-09-19T00:36:30.984Z,76.00
2023-09-19T00:37:02.884Z,77.00
2023-09-19T00:37:35.503Z,80.33
2023-09-19T00:38:08.287Z,89.00
2023-09-19T00:38:40.293Z,90.00
2023-09-19T00:39:12.279Z,87.67
2023-09-19T00:39:44.191Z,88.00
2023-09-19T00:40:19.426Z,89.00
2023-09-19T00:40:54.541Z,94.33
2023-09-19T00:41:26.480Z,98.67
2023-09-19T00:41:58.760Z,96.33
2023-09-19T00:42:30.709Z,98.67
2023-09-19T00:43:02.724Z,97.00
2023-09-19T00:43:36.098Z,96.00
2023-09-19T00:44:08.333Z,96.00
2023-09-19T00:44:41.308Z,95.33
2023-09-19T00:45:14.702Z,95.33
2023-09-19T00:45:49.410Z,96.00
2023-09-19T00:46:21.635Z,95.33
2023-09-19T00:46:54.495Z,94.33
2023-09-19T00:47:26.670Z,94.00
2023-09-19T00:48:00.065Z,93.33
2023-09-19T00:48:32.466Z,92.67
2023-09-19T00:49:04.458Z,92.00
2023-09-19T00:49:36.601Z,90.33
2023-09-19T00:50:09.914Z,88.67
2023-09-19T00:50:44.685Z,86.00
2023-09-19T00:51:20.796Z,83.00
2023-09-19T00:51:53.127Z,82.00
2023-09-19T00:52:25.816Z,82.33
2023-09-19T00:52:58.222Z,83.67
2023-09-19T00:53:32.268Z,85.33
2023-09-19T00:54:05.620Z,88.67
2023-09-19T00:54:37.680Z,91.33
2023-09-19T00:55:11.065Z,95.00
2023-09-19T00:55:43.900Z,101.00
2023-09-19T00:56:19.783Z,101.33
2023-09-19T00:56:55.864Z,100.00
2023-09-19T00:57:27.758Z,100.33
2023-09-19T00:57:59.812Z,103.00
2023-09-19T00:58:35.079Z,106.67
2023-09-19T00:59:07.250Z,109.00
2023-09-19T00:59:39.745Z,108.67
2023-09-19T01:00:16.603Z,106.67
2023-09-19T01:00:52.240Z,105.33
2023-09-19T01:01:24.548Z,104.67
2023-09-19T01:01:57.873Z,107.33
2023-09-19T01:02:31.265Z,119.00
2023-09-19T01:03:03.489Z,117.33
2023-09-19T01:03:35.686Z,116.67
2023-09-19T01:04:08.154Z,114.33
2023-09-19T01:04:40.692Z,112.33
2023-09-19T01:05:16.905Z,112.00
2023-09-19T01:05:49.085Z,111.33
2023-09-19T01:06:20.998Z,111.00
2023-09-19T01:06:54.540Z,110.00
2023-09-19T01:07:26.637Z,110.00
2023-09-19T01:07:59.002Z,110.67
2023-09-19T01:08:31.017Z,112.00
2023-09-19T01:09:04.659Z,111.67
2023-09-19T01:09:36.657Z,111.00
2023-09-19T01:10:14.327Z,111.00
2023-09-19T01:11:01.392Z,110.00
2023-09-19T01:11:40.826Z,107.67
2023-09-19T01:12:19.545Z,106.67
2023-09-19T01:13:16.049Z,105.33
2023-09-19T01:14:06.509Z,105.67
2023-09-19T01:14:44.568Z,116.33
2023-09-19T01:15:27.637Z,117.33
2023-09-19T01:16:34.430Z,119.67
2023-09-19T01:17:11.317Z,120.67
2023-09-19T01:18:07.668Z,121.33
2023-09-19T01:18:56.518Z,120.00
2023-09-19T01:19:55.642Z,120.67
2023-09-19T01:20:50.749Z,119.00
2023-09-19T01:21:46.736Z,117.00
2023-09-19T01:22:26.130Z,124.67
2023-09-19T01:23:03.251Z,130.00
2023-09-19T01:24:00.881Z,130.00
2023-09-19T01:25:04.224Z,126.67
2023-09-19T01:25:57.838Z,125.00
2023-09-19T01:26:48.011Z,124.33
2023-09-19T01:27:41.201Z,124.33
2023-09-19T01:28:28.187Z,128.00
2023-09-19T01:29:03.066Z,131.33
2023-09-19T01:29:40.716Z,134.67
2023-09-19T01:30:19.214Z,133.33
2023-09-19T01:30:55.402Z,133.00
2023-09-19T01:31:30.498Z,131.67
2023-09-19T01:32:07.405Z,131.00
2023-09-19T01:32:39.902Z,130.33
2023-09-19T01:33:12.316Z,129.33
2023-09-19T01:34:01.458Z,130.00
2023-09-19T01:34:51.226Z,130.00
2023-09-19T01:35:23.157Z,131.67
2023-09-19T01:35:58.916Z,134.00
2023-09-19T01:36:37.631Z,133.67
2023-09-19T01:37:09.763Z,132.67
2023-09-19T01:37:45.226Z,131.00
2023-09-19T01:38:21.090Z,131.67
2023-09-19T01:38:54.431Z,132.00
2023-09-19T01:39:26.388Z,131.33
2023-09-19T01:40:09.939Z,131.00
2023-09-19T01:40:55.449Z,130.00
2023-09-19T01:41:34.763Z,130.00
2023-09-19T01:42:36.861Z,130.00
2023-09-19T01:43:18.010Z,136.00
2023-09-19T01:43:51.604Z,139.00
2023-09-19T01:45:02.420Z,140.67
2023-09-19T01:46:12.240Z,143.00
2023-09-19T01:46:44.317Z,143.00
2023-09-19T01:47:37.678Z,143.00
2023-09-19T01:48:21.325Z,142.00
2023-09-19T01:49:30.873Z,141.00
2023-09-19T01:50:08.910Z,140.00
2023-09-19T01:50:42.195Z,140.33
2023-09-19T01:51:22.496Z,141.33
2023-09-19T01:52:04.140Z,145.67
2023-09-19T01:52:44.016Z,164.00
2023-09-19T01:53:26.524Z,163.00
2023-09-19T01:54:13.323Z,159.33
2023-09-19T01:54:52.181Z,155.67
2023-09-19T01:55:28.395Z,154.33
2023-09-19T01:56:02.759Z,153.00
2023-09-19T01:56:58.601Z,152.33
2023-09-19T01:57:36.756Z,151.67
2023-09-19T01:58:29.190Z,151.00
2023-09-19T01:59:10.016Z,151.00
2023-09-19T01:59:50.274Z,151.00
2023-09-19T02:00:24.870Z,150.67
2023-09-19T02:01:00.711Z,150.00
2023-09-19T02:01:33.188Z,150.00
2023-09-19T02:02:08.154Z,150.00
2023-09-19T02:02:43.982Z,149.00
2023-09-19T02:03:16.864Z,149.00
2023-09-19T02:03:52.507Z,150.00
2023-09-19T02:04:24.508Z,150.67
2023-09-19T02:04:56.617Z,150.33
2023-09-19T02:05:29.113Z,151.00
2023-09-19T02:06:01.191Z,151.00
2023-09-19T02:06:35.054Z,150.67
2023-09-19T02:07:07.268Z,150.00
2023-09-19T02:07:39.942Z,150.00
2023-09-19T02:08:11.941Z,150.00
2023-09-19T02:08:43.847Z,150.67
2023-09-19T02:09:16.472Z,151.00
2023-09-19T02:09:49.164Z,151.67
2023-09-19T02:10:22.787Z,152.00
2023-09-19T02:10:54.917Z,152.00
2023-09-19T02:11:27.296Z,152.00
2023-09-19T02:12:00.328Z,152.00
2023-09-19T02:12:33.873Z,152.00
2023-09-19T02:13:05.790Z,151.00
2023-09-19T02:13:39.186Z,150.00
2023-09-19T02:14:11.371Z,149.33
2023-09-19T02:14:43.328Z,149.00
2023-09-19T02:15:16.951Z,150.00
2023-09-19T02:15:48.931Z,150.00
2023-09-19T02:16:21.926Z,150.00
2023-09-19T02:16:54.027Z,148.67
2023-09-19T02:17:28.986Z,148.00
2023-09-19T02:18:00.968Z,148.00
2023-09-19T02:18:34.248Z,149.00
2023-09-19T02:19:07.251Z,149.00
2023-09-19T02:19:40.149Z,149.67
2023-09-19T02:20:16.246Z,151.33
2023-09-19T02:20:48.747Z,153.00
2023-09-19T02:21:23.031Z,153.00
2023-09-19T02:21:55.079Z,152.33
2023-09-19T02:22:27.018Z,151.33
2023-09-19T02:22:58.949Z,149.33
2023-09-19T02:23:31.310Z,147.67
2023-09-19T02:24:04.274Z,146.33
2023-09-19T02:24:36.842Z,146.33
2023-09-19T02:25:09.720Z,148.67
2023-09-19T02:25:42.278Z,152.33
2023-09-19T02:26:15.065Z,155.00
2023-09-19T02:26:47.162Z,155.00
2023-09-19T02:27:19.106Z,154.67
2023-09-19T02:27:51.114Z,154.00
2023-09-19T02:28:23.548Z,154.00
2023-09-19T02:28:55.573Z,154.00
2023-09-19T02:29:27.972Z,154.67
2023-09-19T02:30:00.235Z,155.00
2023-09-19T02:30:32.274Z,155.00
2023-09-19T02:31:06.949Z,157.33
2023-09-19T02:31:39.132Z,161.67
2023-09-19T02:32:11.505Z,163.33
2023-09-19T02:32:43.763Z,165.33
2023-09-19T02:33:16.069Z,165.00
2023-09-19T02:33:47.989Z,164.33
2023-09-19T02:34:20.498Z,163.67
2023-09-19T02:34:53.021Z,163.00
2023-09-19T02:35:26.516Z,163.67
2023-09-19T02:36:02.350Z,163.00
2023-09-19T02:36:34.400Z,163.00
2023-09-19T02:37:07.043Z,163.00
2023-09-19T02:37:39.081Z,163.00
2023-09-19T02:38:13.265Z,165.67
2023-09-19T02:38:45.281Z,167.00
2023-09-19T02:39:17.193Z,166.33
2023-09-19T02:39:49.120Z,166.00
2023-09-19T02:40:21.158Z,166.33
2023-09-19T02:40:56.380Z,167.00
2023-09-19T02:41:30.740Z,167.00
2023-09-19T02:42:05.160Z,167.00
2023-09-19T02:42:37.206Z,166.00
2023-09-19T02:43:10.262Z,166.33
2023-09-19T02:43:44.195Z,167.00
2023-09-19T02:44:16.208Z,166.00
2023-09-19T02:44:49.277Z,163.00
2023-09-19T02:45:21.824Z,157.33
2023-09-19T02:45:54.805Z,155.00
2023-09-19T02:46:26.859Z,156.00
2023-09-19T02:46:58.910Z,156.00
2023-09-19T02:47:32.096Z,154.33
2023-09-19T02:48:04.390Z,152.67
2023-09-19T02:48:37.186Z,153.00
2023-09-19T02:49:09.258Z,153.00
2023-09-19T02:49:41.964Z,154.00
2023-09-19T02:50:16.853Z,153.33
2023-09-19T02:50:52.393Z,151.33
2023-09-19T02:51:24.301Z,149.67
2023-09-19T02:51:56.344Z,147.67
2023-09-19T02:52:28.382Z,145.00
2023-09-19T02:53:00.315Z,144.67
2023-09-19T02:53:33.337Z,146.33
2023-09-19T02:54:05.346Z,148.00
2023-09-19T02:54:38.033Z,149.00
2023-09-19T02:55:10.607Z,149.00
2023-09-19T02:55:42.548Z,149.33
2023-09-19T02:56:14.761Z,150.00
2023-09-19T02:56:46.729Z,150.67
2023-09-19T02:57:21.480Z,151.33
2023-09-19T02:57:55.824Z,152.00
2023-09-19T02:58:29.256Z,152.67
2023-09-19T02:59:01.875Z,153.00
2023-09-19T02:59:33.820Z,153.00
2023-09-19T03:00:06.256Z,154.33
2023-09-19T03:00:38.833Z,156.00
2023-09-19T03:01:14.008Z,156.00
2023-09-19T03:01:47.725Z,156.33
2023-09-19T03:02:20.246Z,159.33
2023-09-19T03:02:55.248Z,162.00
2023-09-19T03:03:29.967Z,163.67
2023-09-19T03:04:01.973Z,164.00
2023-09-19T03:04:34.472Z,163.67
2023-09-19T03:05:09.394Z,164.00
2023-09-19T03:05:41.317Z,163.67
2023-09-19T03:06:14.246Z,163.00
2023-09-19T03:06:46.207Z,163.00
2023-09-19T03:07:18.642Z,163.00
2023-09-19T03:07:54.392Z,163.00
2023-09-19T03:08:26.426Z,163.00
2023-09-19T03:08:58.345Z,163.00
2023-09-19T03:09:30.336Z,164.67
2023-09-19T03:10:02.290Z,167.67
2023-09-19T03:10:34.301Z,168.00
2023-09-19T03:11:12.650Z,168.00
2023-09-19T03:11:45.525Z,168.00
2023-09-19T03:12:17.696Z,168.33
2023-09-19T03:12:49.723Z,169.67
2023-09-19T03:13:21.704Z,171.00
2023-09-19T03:13:54.357Z,171.00
2023-09-19T03:14:26.352Z,171.00
2023-09-19T03:14:58.255Z,171.33
2023-09-19T03:15:30.646Z,172.00
2023-09-19T03:16:02.644Z,172.33
2023-09-19T03:16:34.733Z,172.00
2023-09-19T03:17:06.896Z,171.67
2023-09-19T03:17:39.267Z,171.00
2023-09-19T03:18:11.303Z,170.67
2023-09-19T03:18:43.231Z,170.00
2023-09-19T03:19:16.663Z,169.33
2023-09-19T03:19:49.343Z,167.00
2023-09-19T03:20:22.473Z,164.67
2023-09-19T03:20:57.766Z,163.00
2023-09-19T03:21:30.798Z,163.00
2023-09-19T03:22:04.104Z,163.00
2023-09-19T03:22:36.241Z,163.00
2023-09-19T03:23:09.425Z,163.00
2023-09-19T03:23:42.043Z,163.00
2023-09-19T03:24:13.966Z,163.00
2023-09-19T03:24:46.074Z,163.33
2023-09-19T03:25:18.902Z,164.00
2023-09-19T03:25:51.032Z,164.67
2023-09-19T03:26:23.031Z,165.00
2023-09-19T03:26:55.074Z,165.00
2023-09-19T03:27:27.088Z,166.67
2023-09-19T03:27:59.297Z,167.00
2023-09-19T03:28:31.264Z,167.67
2023-09-19T03:29:08.078Z,168.00
2023-09-19T03:29:40.044Z,168.00
2023-09-19T03:30:14.721Z,168.00
2023-09-19T03:30:47.155Z,168.00
2023-09-19T03:31:19.166Z,167.33
2023-09-19T03:31:51.129Z,167.00
2023-09-19T03:32:23.124Z,167.00
2023-09-19T03:32:55.136Z,168.00
2023-09-19T03:33:27.155Z,168.67
2023-09-19T03:33:59.138Z,169.33
2023-09-19T03:34:31.135Z,170.00
2023-09-19T03:35:03.678Z,170.00
2023-09-19T03:35:36.105Z,169.33
2023-09-19T03:36:08.470Z,170.33
2023-09-19T03:36:41.849Z,174.00
2023-09-19T03:37:13.848Z,176.67
2023-09-19T03:37:45.996Z,177.33
2023-09-19T03:38:18.621Z,177.67
2023-09-19T03:38:50.531Z,177.67
2023-09-19T03:39:22.516Z,177.00
2023-09-19T03:39:54.436Z,177.00
2023-09-19T03:40:27.193Z,176.67
2023-09-19T03:40:59.141Z,177.00
2023-09-19T03:41:31.049Z,178.00
2023-09-19T03:42:08.190Z,177.00
2023-09-19T03:42:43.328Z,173.67
2023-09-19T03:43:15.396Z,171.67
2023-09-19T03:43:47.355Z,171.00
2023-09-19T03:44:19.426Z,170.67
2023-09-19T03:44:51.332Z,170.00
2023-09-19T03:45:23.276Z,170.00
2023-09-19T03:45:58.628Z,170.00
2023-09-19T03:46:31.573Z,170.33
2023-09-19T03:47:05.994Z,170.00
2023-09-19T03:47:38.524Z,170.67
2023-09-19T03:48:11.297Z,171.00
2023-09-19T03:48:43.925Z,171.00
2023-09-19T03:49:15.960Z,171.67
2023-09-19T03:49:48.073Z,172.00
2023-09-19T03:50:20.054Z,172.67
2023-09-19T03:50:52.398Z,174.00
2023-09-19T03:51:24.345Z,175.00
2023-09-19T03:51:57.472Z,176.00
2023-09-19T03:52:29.427Z,176.00
2023-09-19T03:53:01.376Z,176.67
2023-09-19T03:53:33.293Z,178.00
2023-09-19T03:54:05.531Z,180.67
2023-09-19T03:54:37.432Z,185.67
2023-09-19T03:55:11.033Z,188.67
2023-09-19T03:55:43.024Z,188.00
2023-09-19T03:56:15.028Z,189.33
2023-09-19T03:56:46.969Z,190.33
2023-09-19T03:57:21.898Z,194.00
2023-09-19T03:57:54.115Z,196.67
2023-09-19T03:58:26.091Z,196.67
2023-09-19T03:58:58.025Z,195.00
2023-09-19T03:59:30.452Z,193.33
2023-09-19T04:00:02.505Z,193.00
2023-09-19T04:00:38.493Z,192.33
2023-09-19T04:01:11.673Z,191.33
2023-09-19T04:01:43.786Z,190.00
2023-09-19T04:02:23.686Z,188.67
2023-09-19T04:02:57.917Z,188.67
2023-09-19T04:03:36.762Z,189.00
2023-09-19T04:04:12.659Z,189.00
2023-09-19T04:04:44.604Z,189.00
2023-09-19T04:05:16.539Z,189.00
2023-09-19T04:05:51.352Z,189.00
2023-09-19T04:06:23.312Z,190.00
2023-09-19T04:06:55.258Z,190.67
2023-09-19T04:07:30.222Z,191.67
2023-09-19T04:08:02.347Z,192.67
2023-09-19T04:08:34.266Z,193.33
2023-09-19T04:09:08.231Z,194.33
2023-09-19T04:09:40.582Z,195.00
2023-09-19T04:10:16.032Z,196.33
2023-09-19T04:10:48.119Z,206.67
2023-09-19T04:11:20.230Z,219.00
2023-09-19T04:11:52.379Z,219.00
2023-09-19T04:12:24.291Z,214.33
2023-09-19T04:12:57.085Z,212.33
2023-09-19T04:13:29.513Z,213.00
2023-09-19T04:14:04.954Z,210.67
2023-09-19T04:14:36.887Z,210.33
2023-09-19T04:15:09.795Z,212.33
2023-09-19T04:15:42.305Z,219.67
2023-09-19T04:16:14.761Z,241.33
2023-09-19T04:16:46.887Z,258.67
2023-09-19T04:17:20.065Z,287.00
2023-09-19T04:17:52.427Z,299.00
2023-09-19T04:18:27.292Z,300.00
2023-09-19T04:18:59.289Z,307.00
2023-09-19T04:19:31.222Z,313.00
2023-09-19T04:20:05.570Z,322.00
2023-09-19T04:20:37.557Z,330.33
2023-09-19T04:21:09.607Z,336.67
2023-09-19T04:21:42.220Z,343.00
2023-09-19T04:22:14.435Z,351.67
2023-09-19T04:22:47.534Z,356.33
2023-09-19T04:23:22.367Z,359.33
2023-09-19T04:23:54.274Z,357.00
2023-09-19T04:24:26.199Z,355.00
2023-09-19T04:24:58.279Z,352.33
2023-09-19T04:25:30.271Z,345.33
2023-09-19T04:26:02.345Z,338.33
2023-09-19T04:26:34.243Z,322.00
2023-09-19T04:27:06.485Z,312.00
2023-09-19T04:27:39.394Z,309.67
2023-09-19T04:28:13.960Z,298.33
2023-09-19T04:28:47.210Z,272.33
2023-09-19T04:29:20.437Z,263.33
2023-09-19T04:29:54.214Z,250.67
2023-09-19T04:30:26.153Z,238.00
2023-09-19T04:30:58.951Z,232.00
2023-09-19T04:31:31.416Z,219.67
2023-09-19T04:32:07.092Z,207.33
2023-09-19T04:32:43.170Z,195.33
2023-09-19T04:33:15.917Z,194.67
2023-09-19T04:33:47.901Z,197.33
2023-09-19T04:34:19.859Z,199.33
2023-09-19T04:34:51.892Z,194.67
2023-09-19T04:35:23.996Z,189.33
2023-09-19T04:35:56.314Z,184.67
2023-09-19T04:36:36.288Z,173.00
2023-09-19T04:37:08.577Z,174.33
2023-09-19T04:37:41.293Z,175.33
2023-09-19T04:38:13.295Z,176.33
2023-09-19T04:38:46.997Z,176.00
2023-09-19T04:39:19.112Z,177.00
2023-09-19T04:39:51.050Z,182.33
2023-09-19T04:40:24.261Z,188.67
2023-09-19T04:41:02.024Z,187.67
2023-09-19T04:41:34.250Z,183.33
2023-09-19T04:42:07.234Z,186.33
2023-09-19T04:42:43.016Z,185.33
2023-09-19T04:43:16.549Z,190.33
2023-09-19T04:43:48.917Z,192.00
2023-09-19T04:44:20.911Z,192.00
2023-09-19T04:44:54.439Z,191.00
2023-09-19T04:45:27.570Z,191.67
2023-09-19T04:46:01.801Z,195.00
2023-09-19T04:46:33.971Z,210.67
2023-09-19T04:47:07.214Z,212.33
2023-09-19T04:47:44.846Z,206.00
2023-09-19T04:48:17.720Z,189.67
2023-09-19T04:48:49.695Z,189.00
2023-09-19T04:49:21.933Z,184.33
2023-09-19T04:49:54.081Z,184.33
2023-09-19T04:50:29.427Z,197.00
2023-09-19T04:51:01.888Z,214.33
2023-09-19T04:51:35.696Z,219.67
2023-09-19T04:52:08.092Z,223.33
2023-09-19T04:52:43.332Z,221.67
2023-09-19T04:53:15.288Z,218.33
2023-09-19T04:53:47.252Z,218.00
2023-09-19T04:54:19.446Z,217.33
2023-09-19T04:54:51.473Z,216.67
2023-09-19T04:55:23.459Z,215.00
2023-09-19T04:55:56.976Z,211.00
2023-09-19T04:56:29.803Z,205.33
2023-09-19T04:57:02.259Z,193.00
2023-09-19T04:57:34.183Z,160.33
2023-09-19T04:58:06.132Z,130.00
2023-09-19T04:58:38.088Z,119.00
2023-09-19T04:59:12.135Z,108.00
2023-09-19T04:59:44.167Z,99.33
2023-09-19T05:00:24.825Z,88.00
2023-09-19T05:00:57.471Z,77.33
2023-09-19T05:01:29.449Z,67.33
2023-09-19T05:02:01.413Z,63.67
2023-09-19T05:02:33.490Z,62.33
2023-09-19T05:03:05.608Z,65.00
2023-09-19T05:03:38.244Z,63.67
2023-09-19T05:04:10.431Z,61.67
2023-09-19T05:04:42.478Z,62.33
2023-09-19T05:05:15.971Z,63.00
2023-09-19T05:05:48.097Z,66.00
2023-09-19T05:06:23.700Z,66.33
2023-09-19T05:06:55.753Z,62.67
2023-09-19T05:07:27.724Z,60.33
2023-09-19T05:08:05.959Z,65.33
2023-09-19T05:08:37.873Z,71.00
2023-09-19T05:09:09.848Z,68.33
2023-09-19T05:09:43.512Z,68.00
2023-09-19T05:10:16.143Z,71.33
2023-09-19T05:10:48.280Z,70.00
2023-09-19T05:11:24.107Z,75.67
2023-09-19T05:11:57.551Z,82.33
2023-09-19T05:12:29.456Z,82.67
2023-09-19T05:13:02.274Z,72.00
2023-09-19T05:13:34.265Z,56.33
2023-09-19T05:14:06.347Z,50.67
2023-09-19T05:14:38.409Z,50.33
2023-09-19T05:15:10.418Z,50.00
2023-09-19T05:15:42.376Z,50.67
2023-09-19T05:16:14.364Z,52.67
2023-09-19T05:16:46.440Z,49.67
2023-09-19T05:17:18.474Z,47.67
2023-09-19T05:17:55.693Z,43.00
2023-09-19T05:18:29.402Z,42.00
2023-09-19T05:19:01.351Z,42.67
2023-09-19T05:19:33.299Z,41.33
2023-09-19T05:20:17.852Z,42.00
2023-09-19T05:20:50.978Z,42.33
2023-09-19T05:21:23.697Z,44.67
2023-09-19T05:21:56.240Z,44.00
2023-09-19T05:22:28.761Z,43.00
2023-09-19T05:23:04.257Z,42.33
2023-09-19T05:23:36.164Z,45.67
2023-09-19T05:24:10.190Z,47.33
2023-09-19T05:24:43.332Z,48.00
2023-09-19T05:25:18.041Z,48.33
2023-09-19T05:25:50.753Z,49.33
2023-09-19T05:26:22.770Z,49.67
2023-09-19T05:26:56.760Z,48.67
2023-09-19T05:27:28.678Z,45.67
2023-09-19T05:28:01.838Z,42.33
2023-09-19T05:28:35.668Z,39.67
2023-09-19T05:29:09.214Z,36.00
2023-09-19T05:29:41.366Z,35.00
2023-09-19T05:30:16.144Z,36.33
2023-09-19T05:30:49.254Z,38.33
2023-09-19T05:31:21.847Z,39.00
2023-09-19T05:31:56.151Z,38.00
2023-09-19T05:32:28.179Z,36.33
2023-09-19T05:33:00.309Z,35.00
2023-09-19T05:33:33.244Z,35.00
2023-09-19T05:34:05.299Z,34.33
2023-09-19T05:34:37.539Z,34.00
2023-09-19T05:35:10.762Z,35.00
2023-09-19T05:35:43.172Z,35.67
2023-09-19T05:36:17.040Z,36.00
2023-09-19T05:36:50.046Z,37.00
2023-09-19T05:37:22.066Z,36.00
2023-09-19T05:37:54.933Z,35.00
2023-09-19T05:38:28.855Z,35.67
2023-09-19T05:39:01.078Z,40.33
2023-09-19T05:39:33.061Z,44.33
2023-09-19T05:40:08.687Z,45.00
2023-09-19T05:40:43.455Z,44.33
2023-09-19T05:41:16.133Z,40.33
2023-09-19T05:41:48.813Z,37.33
2023-09-19T05:42:20.838Z,35.67
2023-09-19T05:42:52.986Z,35.00
2023-09-19T05:43:25.271Z,35.00
2023-09-19T05:43:57.370Z,35.00
2023-09-19T05:44:29.359Z,35.33
2023-09-19T05:45:01.512Z,36.00
2023-09-19T05:45:33.485Z,35.00
2023-09-19T05:46:05.537Z,33.33
2023-09-19T05:46:37.584Z,32.00
2023-09-19T05:47:10.265Z,32.67
2023-09-19T05:47:46.795Z,39.00
2023-09-19T05:48:18.969Z,53.67
2023-09-19T05:48:51.337Z,59.67
2023-09-19T05:49:23.457Z,65.67
2023-09-19T05:49:55.611Z,75.00
2023-09-19T05:50:27.601Z,76.33
2023-09-19T05:50:59.520Z,73.67
2023-09-19T05:51:31.978Z,72.00
2023-09-19T05:52:04.039Z,69.67
2023-09-19T05:52:38.433Z,67.00
2023-09-19T05:53:13.231Z,65.00
2023-09-19T05:53:45.167Z,63.00
2023-09-19T05:54:19.540Z,56.00
2023-09-19T05:54:51.671Z,42.67
2023-09-19T05:55:26.325Z,32.33
2023-09-19T05:55:58.532Z,26.33
2023-09-19T05:56:30.519Z,24.33
2023-09-19T05:57:02.973Z,23.67
2023-09-19T05:57:40.290Z,21.00
2023-09-19T05:58:15.278Z,20.00
2023-09-19T05:58:47.290Z,22.33
2023-09-19T05:59:19.253Z,24.33
2023-09-19T05:59:51.775Z,25.67
2023-09-19T06:00:24.907Z,25.67
2023-09-19T06:00:56.878Z,25.00
2023-09-19T06:01:28.870Z,24.67
2023-09-19T06:02:01.843Z,25.00
2023-09-19T06:02:34.496Z,25.67
2023-09-19T06:03:06.716Z,26.00
2023-09-19T06:03:39.148Z,27.00
2023-09-19T06:04:11.479Z,27.00
2023-09-19T06:04:43.511Z,28.00
2023-09-19T06:05:16.126Z,27.00
2023-09-19T06:05:50.748Z,25.00
2023-09-19T06:06:23.047Z,21.00
2023-09-19T06:06:54.954Z,18.33
2023-09-19T06:07:28.213Z,18.00
2023-09-19T06:08:09.181Z,17.00
2023-09-19T06:08:41.543Z,17.00
2023-09-19T06:09:13.493Z,16.00
2023-09-19T06:09:45.410Z,16.00
2023-09-19T06:10:18.625Z,16.33
2023-09-19T06:10:53.498Z,17.00
2023-09-19T06:11:27.837Z,17.00
2023-09-19T06:12:04.561Z,17.00
2023-09-19T06:12:46.074Z,17.00
2023-09-19T06:13:19.697Z,15.67
2023-09-19T06:13:54.653Z,14.33
2023-09-19T06:14:26.624Z,14.00
2023-09-19T06:14:58.612Z,14.00
2023-09-19T06:15:31.473Z,14.33
2023-09-19T06:16:06.448Z,15.00
2023-09-19T06:16:39.513Z,15.00
2023-09-19T06:17:11.785Z,15.00
2023-09-19T06:18:00.508Z,15.67
2023-09-19T06:18:34.845Z,16.67
2023-09-19T06:19:10.109Z,18.00
2023-09-19T06:19:42.635Z,19.00
2023-09-19T06:20:14.973Z,19.67
2023-09-19T06:20:52.356Z,20.67
2023-09-19T06:21:24.859Z,22.67
2023-09-19T06:21:56.757Z,26.67
2023-09-19T06:22:28.732Z,28.67
2023-09-19T06:23:02.963Z,30.00
2023-09-19T06:23:36.651Z,30.00
2023-09-19T06:24:08.682Z,31.00
2023-09-19T06:24:41.305Z,32.33
2023-09-19T06:25:16.842Z,36.00
2023-09-19T06:25:49.462Z,41.00
2023-09-19T06:26:21.416Z,43.00
2023-09-19T06:26:53.935Z,42.33
2023-09-19T06:27:25.863Z,41.67
2023-09-19T06:27:58.249Z,41.00
2023-09-19T06:28:30.252Z,41.00
2023-09-19T06:29:02.292Z,41.67
2023-09-19T06:29:35.283Z,43.33
2023-09-19T06:30:08.298Z,45.00
2023-09-19T06:30:43.130Z,46.67
2023-09-19T06:31:15.095Z,47.67
2023-09-19T06:31:47.193Z,48.00
2023-09-19T06:32:19.192Z,47.33
2023-09-19T06:32:51.396Z,48.33
2023-09-19T06:33:23.369Z,50.33
2023-09-19T06:33:55.442Z,52.00
2023-09-19T06:34:27.384Z,53.33
2023-09-19T06:35:00.396Z,54.33
2023-09-19T06:35:34.498Z,52.00
2023-09-19T06:36:09.564Z,50.33
2023-09-19T06:36:42.064Z,49.00
2023-09-19T06:37:14.013Z,49.00
2023-09-19T06:37:45.999Z,51.33
2023-09-19T06:38:20.339Z,53.00
2023-09-19T06:38:55.287Z,52.00
2023-09-19T06:39:27.278Z,52.00
2023-09-19T06:39:59.187Z,51.33
2023-09-19T06:40:32.342Z,50.33
2023-09-19T06:41:08.376Z,47.67
2023-09-19T06:41:40.694Z,42.33
2023-09-19T06:42:13.183Z,40.00
2023-09-19T06:42:51.793Z,40.00
2023-09-19T06:43:23.769Z,40.00
2023-09-19T06:43:55.809Z,40.00
2023-09-19T06:44:27.737Z,41.00
2023-09-19T06:44:59.671Z,40.00
2023-09-19T06:45:33.140Z,40.00
2023-09-19T06:46:05.748Z,39.67
2023-09-19T06:46:40.424Z,40.00
2023-09-19T06:47:12.586Z,39.33
2023-09-19T06:47:47.267Z,38.67
2023-09-19T06:48:19.325Z,38.00
2023-09-19T06:48:53.309Z,38.00
2023-09-19T06:49:25.434Z,39.67
2023-09-19T06:49:57.392Z,41.00
2023-09-19T06:50:29.507Z,42.00
2023-09-19T06:51:06.436Z,42.00
2023-09-19T06:51:38.883Z,41.33
2023-09-19T06:52:11.160Z,41.00
2023-09-19T06:52:43.162Z,39.00
2023-09-19T06:53:15.456Z,33.00
2023-09-19T06:53:47.358Z,28.00
2023-09-19T06:54:19.262Z,27.00
2023-09-19T06:54:51.652Z,27.00
2023-09-19T06:55:29.597Z,27.00
2023-09-19T06:56:02.245Z,27.33
2023-09-19T06:56:34.319Z,27.00
2023-09-19T06:57:07.122Z,28.00
2023-09-19T06:57:39.032Z,28.33
2023-09-19T06:58:11.872Z,29.00
2023-09-19T06:58:44.870Z,29.33
2023-09-19T06:59:17.542Z,30.00
2023-09-19T06:59:49.444Z,30.00
2023-09-19T07:00:23.314Z,30.00
2023-09-19T07:00:55.353Z,30.00
2023-09-19T07:01:27.389Z,30.00
2023-09-19T07:02:00.647Z,30.00
2023-09-19T07:02:32.829Z,28.67
2023-09-19T07:03:12.851Z,28.00
2023-09-19T07:03:46.835Z,27.00
2023-09-19T07:04:20.811Z,27.67
2023-09-19T07:04:52.892Z,28.00
2023-09-19T07:05:24.923Z,28.00
2023-09-19T07:05:57.272Z,28.00
2023-09-19T07:06:29.252Z,28.33
2023-09-19T07:07:01.161Z,30.00
2023-09-19T07:07:36.117Z,33.00
2023-09-19T07:08:09.390Z,37.00
2023-09-19T07:08:41.823Z,38.00
2023-09-19T07:09:13.776Z,38.00
2023-09-19T07:09:45.718Z,38.00
2023-09-19T07:10:18.020Z,39.00
2023-09-19T07:10:50.584Z,39.33
2023-09-19T07:11:23.826Z,40.00